createdAt,value
2019-06-20T00:00:39.001Z,26.42
2019-06-20T00:03:06.765Z,26.45
2019-06-20T00:05:34.580Z,26.32
2019-06-20T00:08:02.493Z,26.26
2019-06-20T00:10:30.389Z,26.36
2019-06-20T00:13:00.791Z,26.30
2019-06-20T00:15:27.920Z,26.33
2019-06-20T00:17:55.720Z,26.26
2019-06-20T00:20:23.518Z,26.34
2019-06-20T00:22:51.305Z,25.74
2019-06-20T00:25:19.090Z,25.86
2019-06-20T00:27:46.888Z,25.93
2019-06-20T00:30:15.459Z,26.11
2019-06-20T00:32:45.189Z,26.15
2019-06-20T00:35:12.977Z,26.08
2019-06-20T00:37:40.768Z,25.95
2019-06-20T00:40:09.142Z,25.67
2019-06-20T00:42:36.924Z,25.67
2019-06-20T00:45:05.583Z,25.58
2019-06-20T00:47:33.371Z,25.33
2019-06-20T00:50:01.148Z,25.17
2019-06-20T00:52:28.954Z,25.43
2019-06-20T00:54:56.723Z,25.23
2019-06-20T00:57:24.563Z,24.99
2019-06-20T00:59:52.347Z,24.84
2019-06-20T01:02:20.182Z,24.78
2019-06-20T01:04:47.997Z,23.48
2019-06-20T01:07:18.571Z,24.06
2019-06-20T01:09:46.331Z,24.00
2019-06-20T01:12:14.166Z,23.69
2019-06-20T01:14:41.945Z,23.68
2019-06-20T01:17:09.729Z,23.56
2019-06-20T01:19:37.573Z,22.94
2019-06-20T01:22:05.390Z,23.22
2019-06-20T01:24:33.292Z,23.24
2019-06-20T01:27:01.115Z,23.23
2019-06-20T01:29:28.869Z,23.13
2019-06-20T01:31:56.651Z,22.81
2019-06-20T01:34:24.436Z,22.67
2019-06-20T01:36:52.241Z,23.01
2019-06-20T01:39:20.010Z,23.02
2019-06-20T01:41:50.793Z,23.57
2019-06-20T01:44:18.583Z,23.90
2019-06-20T01:46:46.399Z,24.04
2019-06-20T01:49:14.166Z,23.69
2019-06-20T01:51:41.986Z,23.58
2019-06-20T01:54:09.739Z,23.49
2019-06-20T01:56:37.516Z,23.36
2019-06-20T01:59:05.327Z,23.71
2019-06-20T02:01:33.159Z,23.80
2019-06-20T02:04:00.977Z,23.79
2019-06-20T02:06:28.744Z,23.76
2019-06-20T02:11:23.983Z,22.95
2019-06-20T02:14:06.428Z,23.45
2019-06-20T02:16:21.494Z,23.52
2019-06-20T02:18:49.329Z,23.39
2019-06-20T02:21:17.096Z,23.17
2019-06-20T02:23:44.912Z,23.81
2019-06-20T02:26:12.701Z,23.38
2019-06-20T02:28:40.500Z,22.87
2019-06-20T02:31:08.272Z,23.21
2019-06-20T02:33:36.042Z,23.30
2019-06-20T02:36:03.865Z,22.63
2019-06-20T02:38:31.772Z,22.62
2019-06-20T02:40:59.534Z,23.00
2019-06-20T02:43:27.517Z,22.94
2019-06-20T02:45:55.354Z,23.20
2019-06-20T02:48:23.155Z,22.77
2019-06-20T02:50:50.917Z,22.98
2019-06-20T02:53:18.692Z,22.99
2019-06-20T02:55:46.639Z,22.95
2019-06-20T02:58:14.538Z,23.26
2019-06-20T03:00:55.538Z,22.99
2019-06-20T03:03:23.533Z,22.95
2019-06-20T03:05:51.401Z,22.69
2019-06-20T03:08:19.210Z,22.64
2019-06-20T03:10:46.978Z,22.92
2019-06-20T03:13:14.777Z,22.84
2019-06-20T03:15:42.580Z,22.77
2019-06-20T03:18:10.378Z,22.76
2019-06-20T03:20:38.145Z,22.69
2019-06-20T03:23:05.961Z,22.65
2019-06-20T03:25:33.745Z,22.45
2019-06-20T03:28:01.557Z,22.53
2019-06-20T03:30:29.487Z,22.57
2019-06-20T03:32:57.361Z,22.30
2019-06-20T03:35:25.185Z,22.48
2019-06-20T03:37:52.998Z,22.57
2019-06-20T03:40:20.785Z,22.51
2019-06-20T03:42:48.702Z,22.38
2019-06-20T03:45:16.445Z,22.20
2019-06-20T03:47:44.256Z,22.29
2019-06-20T03:50:12.231Z,22.12
2019-06-20T03:52:40.006Z,22.27
2019-06-20T03:55:08.400Z,21.99
2019-06-20T03:57:36.162Z,22.11
2019-06-20T04:00:05.111Z,22.03
2019-06-20T04:02:32.895Z,22.17
2019-06-20T04:05:01.048Z,22.14
2019-06-20T04:07:28.863Z,21.98
2019-06-20T04:09:56.631Z,21.86
2019-06-20T04:12:24.405Z,21.98
2019-06-20T04:14:52.198Z,21.93
2019-06-20T04:17:19.989Z,22.25
2019-06-20T04:19:47.781Z,22.28
2019-06-20T04:22:15.594Z,22.21
2019-06-20T04:24:43.422Z,22.06
2019-06-20T04:27:11.228Z,22.34
2019-06-20T04:29:39.044Z,22.01
2019-06-20T04:32:06.834Z,22.21
2019-06-20T04:34:34.724Z,22.03
2019-06-20T04:37:02.474Z,21.92
2019-06-20T04:39:30.289Z,22.02
2019-06-20T04:41:58.048Z,22.27
2019-06-20T04:44:25.913Z,22.21
2019-06-20T04:46:59.791Z,22.01
2019-06-20T04:49:27.646Z,22.01
2019-06-20T04:51:55.463Z,22.35
2019-06-20T04:54:23.298Z,21.98
2019-06-20T04:56:51.099Z,22.07
2019-06-20T04:59:18.943Z,21.99
2019-06-20T05:01:46.711Z,22.14
2019-06-20T05:04:14.520Z,22.33
2019-06-20T05:06:46.414Z,22.29
2019-06-20T05:09:14.210Z,22.37
2019-06-20T05:11:41.998Z,22.42
2019-06-20T05:14:09.823Z,22.48
2019-06-20T05:16:37.633Z,22.54
2019-06-20T05:19:05.454Z,22.57
2019-06-20T05:21:33.258Z,22.87
2019-06-20T05:24:01.071Z,23.08
2019-06-20T05:26:28.875Z,23.34
2019-06-20T05:28:56.655Z,23.45
2019-06-20T05:31:24.468Z,23.65
2019-06-20T05:33:52.426Z,23.76
2019-06-20T05:36:20.281Z,24.06
2019-06-20T05:38:48.052Z,24.13
2019-06-20T05:41:15.904Z,24.41
2019-06-20T05:43:43.732Z,24.38
2019-06-20T05:46:11.795Z,24.26
2019-06-20T05:48:39.566Z,24.15
2019-06-20T05:51:07.352Z,24.24
2019-06-20T05:53:35.153Z,24.76
2019-06-20T05:56:02.961Z,24.87
2019-06-20T05:58:30.754Z,24.65
2019-06-20T06:00:58.565Z,24.52
2019-06-20T06:03:26.408Z,24.52
2019-06-20T06:05:54.658Z,24.67
2019-06-20T06:08:22.594Z,24.70
2019-06-20T06:10:50.381Z,24.71
2019-06-20T06:13:18.191Z,24.98
2019-06-20T06:15:46.031Z,24.57
2019-06-20T06:18:14.222Z,24.50
2019-06-20T06:20:44.801Z,24.24
2019-06-20T06:23:11.844Z,24.28
2019-06-20T06:25:41.096Z,24.11
2019-06-20T06:28:12.242Z,24.28
2019-06-20T06:30:38.779Z,24.23
2019-06-20T06:33:06.524Z,23.83
2019-06-20T06:35:34.362Z,23.86
2019-06-20T06:38:02.180Z,23.71
2019-06-20T06:40:30.245Z,23.61
2019-06-20T06:42:58.146Z,23.69
2019-06-20T06:45:25.950Z,23.84
2019-06-20T06:47:53.751Z,23.79
2019-06-20T06:50:21.870Z,23.72
2019-06-20T06:52:49.681Z,23.97
2019-06-20T06:55:18.581Z,23.99
2019-06-20T06:57:46.457Z,24.19
2019-06-20T07:00:16.383Z,24.45
2019-06-20T07:02:44.202Z,24.57
2019-06-20T07:05:12.339Z,24.71
2019-06-20T07:07:40.315Z,24.75
2019-06-20T07:10:08.998Z,24.62
2019-06-20T07:12:36.970Z,24.44
2019-06-20T07:15:05.892Z,24.87
2019-06-20T07:17:33.714Z,25.29
2019-06-20T07:20:01.472Z,24.95
2019-06-20T07:22:29.583Z,24.73
2019-06-20T07:24:57.380Z,24.79
2019-06-20T07:27:25.165Z,24.97
2019-06-20T07:29:52.965Z,24.92
2019-06-20T07:32:20.847Z,24.93
2019-06-20T07:34:49.122Z,24.53
2019-06-20T07:37:16.925Z,24.37
2019-06-20T07:39:44.739Z,24.64
2019-06-20T07:42:12.523Z,24.45
2019-06-20T07:44:40.375Z,24.83
2019-06-20T07:47:16.941Z,24.97
2019-06-20T07:49:37.811Z,25.10
2019-06-20T07:52:05.714Z,25.18
2019-06-20T07:54:33.517Z,24.89
2019-06-20T07:57:01.358Z,24.88
2019-06-20T07:59:29.107Z,24.95
2019-06-20T08:01:56.932Z,25.16
2019-06-20T08:04:24.698Z,25.05
2019-06-20T08:06:52.526Z,25.24
2019-06-20T08:09:22.166Z,25.35
2019-06-20T08:11:49.981Z,25.12
2019-06-20T08:14:17.735Z,25.17
2019-06-20T08:16:45.511Z,25.49
2019-06-20T08:19:13.286Z,25.37
2019-06-20T08:21:44.054Z,25.21
2019-06-20T08:24:10.798Z,25.20
2019-06-20T08:26:38.618Z,25.39
2019-06-20T08:29:19.731Z,25.39
2019-06-20T08:31:36.122Z,25.02
2019-06-20T08:34:04.442Z,25.00
2019-06-20T08:36:32.338Z,25.01
2019-06-20T08:39:00.285Z,24.89
2019-06-20T08:41:29.578Z,25.15
2019-06-20T08:43:58.459Z,25.56
2019-06-20T08:46:27.062Z,25.69
2019-06-20T08:48:54.917Z,25.57
2019-06-20T08:51:24.522Z,25.59
2019-06-20T08:53:52.298Z,25.85
2019-06-20T08:56:20.113Z,25.66
2019-06-20T08:58:47.865Z,25.49
2019-06-20T09:01:15.645Z,25.67
2019-06-20T09:03:43.470Z,26.13
2019-06-20T09:06:11.259Z,26.12
2019-06-20T09:08:39.022Z,26.65
2019-06-20T09:11:09.601Z,26.24
2019-06-20T09:13:39.950Z,26.48
2019-06-20T09:16:07.558Z,27.55
2019-06-20T09:18:35.369Z,28.47
2019-06-20T09:21:03.129Z,27.67
2019-06-20T09:23:30.955Z,27.59
2019-06-20T09:25:59.651Z,27.97
2019-06-20T09:28:27.619Z,28.64
2019-06-20T09:30:55.400Z,27.68
2019-06-20T09:33:23.223Z,28.06
2019-06-20T09:35:53.583Z,27.78
2019-06-20T09:38:23.319Z,27.51
2019-06-20T09:40:51.922Z,27.71
2019-06-20T09:43:27.650Z,28.55
2019-06-20T09:45:51.421Z,27.85
2019-06-20T09:48:20.303Z,28.18
2019-06-20T09:50:49.307Z,27.90
2019-06-20T09:53:17.783Z,28.77
2019-06-20T09:55:45.568Z,29.50
2019-06-20T09:58:13.366Z,29.25
2019-06-20T10:00:41.683Z,28.19
2019-06-20T10:03:09.744Z,28.08
2019-06-20T10:05:37.832Z,27.81
2019-06-20T10:08:06.034Z,28.29
2019-06-20T10:10:35.218Z,28.39
2019-06-20T10:13:02.989Z,28.29
2019-06-20T10:15:32.106Z,28.74
2019-06-20T10:17:59.905Z,28.58
2019-06-20T10:20:27.878Z,29.05
2019-06-20T10:22:55.674Z,29.05
2019-06-20T10:25:24.056Z,29.09
2019-06-20T10:27:53.407Z,29.07
2019-06-20T10:30:22.488Z,28.46
2019-06-20T10:32:51.002Z,28.47
2019-06-20T10:35:18.989Z,29.08
2019-06-20T10:37:48.370Z,29.66
2019-06-20T10:40:18.744Z,29.23
2019-06-20T10:42:48.054Z,29.43
2019-06-20T10:45:17.744Z,29.91
2019-06-20T10:47:47.095Z,29.94
2019-06-20T10:50:17.042Z,29.19
2019-06-20T10:52:45.269Z,28.83
2019-06-20T10:55:13.393Z,29.45
2019-06-20T10:57:41.840Z,29.20
2019-06-20T11:00:26.789Z,28.90
2019-06-20T11:02:43.438Z,28.15
2019-06-20T11:05:12.949Z,27.99
2019-06-20T11:07:42.055Z,28.47
2019-06-20T11:10:10.935Z,28.44
2019-06-20T11:12:45.619Z,28.58
2019-06-20T11:15:09.612Z,28.49
2019-06-20T11:17:38.623Z,28.77
2019-06-20T11:20:08.064Z,28.46
2019-06-20T11:22:37.780Z,28.24
2019-06-20T11:25:06.537Z,28.26
2019-06-20T11:27:34.319Z,28.17
2019-06-20T11:30:02.135Z,28.20
2019-06-20T11:32:30.000Z,28.01
2019-06-20T11:34:57.960Z,28.01
2019-06-20T11:37:25.754Z,28.44
2019-06-20T11:39:53.732Z,28.05
2019-06-20T11:42:21.668Z,28.20
2019-06-20T11:44:49.538Z,27.60
2019-06-20T11:47:20.416Z,27.78
2019-06-20T11:49:48.325Z,27.81
2019-06-20T11:52:16.208Z,27.59
2019-06-20T11:54:44.123Z,27.41
2019-06-20T11:57:11.919Z,27.49
2019-06-20T11:59:40.041Z,27.44
2019-06-20T12:02:10.942Z,27.48
2019-06-20T12:04:40.058Z,27.34
2019-06-20T12:07:10.178Z,27.18
2019-06-20T12:09:39.560Z,27.20
2019-06-20T12:12:08.286Z,27.31
2019-06-20T12:14:36.205Z,27.27
2019-06-20T12:17:04.051Z,27.21
2019-06-20T12:19:31.959Z,27.56
2019-06-20T12:22:00.545Z,27.59
2019-06-20T12:24:28.540Z,27.95
2019-06-20T12:26:56.486Z,28.03
2019-06-20T12:29:24.518Z,27.82
2019-06-20T12:31:52.887Z,27.82
2019-06-20T12:34:20.762Z,27.43
2019-06-20T12:36:48.686Z,27.48
2019-06-20T12:39:16.597Z,27.68
2019-06-20T12:41:45.606Z,27.55
2019-06-20T12:44:13.653Z,27.57
2019-06-20T12:46:42.614Z,27.65
2019-06-20T12:49:10.539Z,27.80
2019-06-20T12:51:39.130Z,28.03
2019-06-20T12:54:08.100Z,28.11
2019-06-20T12:56:35.902Z,28.11
2019-06-20T12:59:03.865Z,28.00
2019-06-20T13:01:38.855Z,27.74
2019-06-20T13:04:01.483Z,27.77
2019-06-20T13:06:29.288Z,27.31
2019-06-20T13:08:57.128Z,27.16
2019-06-20T13:11:24.928Z,26.95
2019-06-20T13:13:52.722Z,26.86
2019-06-20T13:16:20.782Z,26.99
2019-06-20T13:18:48.666Z,26.89
2019-06-20T13:21:18.969Z,26.93
2019-06-20T13:23:47.227Z,26.80
2019-06-20T13:26:15.217Z,26.84
2019-06-20T13:28:59.070Z,26.91
2019-06-20T13:31:12.833Z,27.12
2019-06-20T13:33:40.999Z,27.37
2019-06-20T13:36:09.588Z,27.47
2019-06-20T13:38:38.028Z,27.58
2019-06-20T13:41:07.364Z,27.61
2019-06-20T13:43:35.256Z,27.78
2019-06-20T13:46:03.516Z,27.67
2019-06-20T13:48:42.215Z,27.80
2019-06-20T13:51:19.525Z,27.66
2019-06-20T13:53:48.629Z,27.62
2019-06-20T13:56:17.144Z,27.62
2019-06-20T13:58:45.052Z,27.65
2019-06-20T14:01:14.674Z,27.69
2019-06-20T14:03:44.043Z,27.59
2019-06-20T14:06:12.253Z,27.65
2019-06-20T14:08:42.368Z,27.58
2019-06-20T14:11:10.175Z,27.56
2019-06-20T14:13:38.005Z,27.50
2019-06-20T14:16:05.846Z,27.44
2019-06-20T14:18:33.641Z,27.48
2019-06-20T14:21:01.477Z,27.45
2019-06-20T14:23:30.523Z,27.43
2019-06-20T14:25:58.383Z,27.29
2019-06-20T14:28:26.227Z,27.31
2019-06-20T14:30:54.048Z,27.24
2019-06-20T14:33:21.864Z,27.13
2019-06-20T14:35:51.084Z,27.19
2019-06-20T14:38:19.044Z,27.26
2019-06-20T14:40:48.209Z,27.33
2019-06-20T14:43:16.254Z,27.26
2019-06-20T14:45:45.533Z,27.22
2019-06-20T14:48:14.207Z,27.17
2019-06-20T14:50:43.832Z,26.94
2019-06-20T14:53:11.790Z,26.90
2019-06-20T14:55:39.655Z,26.92
2019-06-20T14:58:07.548Z,26.87
2019-06-20T15:00:35.380Z,27.06
2019-06-20T15:03:03.446Z,27.06
2019-06-20T15:05:34.708Z,26.96
2019-06-20T15:08:00.964Z,26.94
2019-06-20T15:10:28.781Z,26.74
2019-06-20T15:12:58.501Z,26.83
2019-06-20T15:15:26.363Z,26.87
2019-06-20T15:17:58.094Z,26.44
2019-06-20T15:20:26.184Z,25.79
2019-06-20T15:22:54.689Z,24.92
2019-06-20T15:25:24.084Z,24.29
2019-06-20T15:27:53.946Z,24.40
2019-06-20T15:30:21.762Z,24.46
2019-06-20T15:33:04.384Z,24.32
2019-06-20T15:35:19.473Z,24.10
2019-06-20T15:37:49.908Z,24.40
2019-06-20T15:40:18.513Z,24.22
2019-06-20T15:42:47.098Z,24.20
2019-06-20T15:45:16.119Z,24.26
2019-06-20T15:47:45.809Z,24.44
2019-06-20T15:50:15.848Z,24.46
2019-06-20T15:52:43.665Z,24.71
2019-06-20T15:55:11.551Z,24.73
2019-06-20T15:57:39.681Z,24.86
2019-06-20T16:00:08.638Z,24.99
2019-06-20T16:02:36.482Z,25.18
2019-06-20T16:05:05.346Z,25.27
2019-06-20T16:07:33.181Z,25.09
2019-06-20T16:10:01.007Z,25.21
2019-06-20T16:12:28.833Z,25.29
2019-06-20T16:14:56.746Z,25.53
2019-06-20T16:17:24.612Z,25.64
2019-06-20T16:19:52.479Z,25.74
2019-06-20T16:22:20.385Z,25.82
2019-06-20T16:24:48.229Z,25.86
2019-06-20T16:27:16.390Z,26.04
2019-06-20T16:29:44.231Z,26.18
2019-06-20T16:32:12.054Z,26.20
2019-06-20T16:34:39.897Z,25.90
2019-06-20T16:37:10.465Z,25.81
2019-06-20T16:39:37.533Z,25.97
2019-06-20T16:42:05.368Z,26.12
2019-06-20T16:44:33.196Z,26.40
2019-06-20T16:47:01.008Z,26.40
2019-06-20T16:49:28.899Z,26.57
2019-06-20T16:51:57.105Z,26.44
2019-06-20T16:54:25.729Z,26.62
2019-06-20T16:56:54.861Z,26.73
2019-06-20T16:59:23.205Z,26.78
2019-06-20T17:01:51.041Z,26.90
2019-06-20T17:04:20.645Z,26.80
2019-06-20T17:06:50.098Z,26.57
2019-06-20T17:09:23.048Z,26.47
2019-06-20T17:11:50.908Z,26.29
2019-06-20T17:14:18.849Z,26.26
2019-06-20T17:16:46.703Z,26.60
2019-06-20T17:19:14.483Z,26.76
2019-06-20T17:21:42.335Z,26.64
2019-06-20T17:24:10.414Z,26.36
2019-06-20T17:26:38.190Z,26.35
2019-06-20T17:29:06.103Z,26.57
2019-06-20T17:31:34.028Z,26.58
2019-06-20T17:34:01.932Z,26.50
2019-06-20T17:36:29.696Z,26.35
2019-06-20T17:38:57.518Z,26.38
2019-06-20T17:41:25.390Z,26.20
2019-06-20T17:43:53.189Z,26.35
2019-06-20T17:46:21.010Z,26.17
2019-06-20T17:48:48.825Z,26.20
2019-06-20T17:51:16.756Z,25.39
2019-06-20T17:53:44.515Z,23.94
2019-06-20T17:56:12.384Z,21.38
2019-06-20T17:58:40.147Z,21.04
2019-06-20T18:01:07.997Z,20.16
2019-06-20T18:03:35.755Z,19.83
2019-06-20T18:06:03.542Z,20.08
2019-06-20T18:08:31.353Z,20.30
2019-06-20T18:10:59.157Z,20.40
2019-06-20T18:13:26.994Z,20.56
2019-06-20T18:15:54.807Z,20.58
2019-06-20T18:18:22.612Z,20.67
2019-06-20T18:20:50.387Z,20.68
2019-06-20T18:23:18.236Z,20.30
2019-06-20T18:25:46.052Z,20.51
2019-06-20T18:28:13.829Z,20.72
2019-06-20T18:30:43.118Z,21.00
2019-06-20T18:33:11.122Z,21.05
2019-06-20T18:35:38.991Z,20.61
2019-06-20T18:38:06.894Z,20.71
2019-06-20T18:40:34.683Z,20.43
2019-06-20T18:43:02.809Z,20.58
2019-06-20T18:45:30.695Z,20.60
2019-06-20T18:47:58.476Z,20.67
2019-06-20T18:50:26.319Z,20.86
2019-06-20T18:52:54.123Z,20.78
2019-06-20T18:55:21.908Z,20.75
2019-06-20T18:57:50.056Z,20.73
2019-06-20T19:00:33.605Z,20.83
2019-06-20T19:02:50.087Z,21.00
2019-06-20T19:05:17.992Z,21.13
2019-06-20T19:07:45.826Z,21.31
2019-06-20T19:10:19.762Z,21.43
2019-06-20T19:12:47.568Z,21.50
2019-06-20T19:15:15.829Z,21.48
2019-06-20T19:17:43.653Z,21.47
2019-06-20T19:20:13.413Z,21.34
2019-06-20T19:22:41.194Z,21.30
2019-06-20T19:25:10.629Z,21.33
2019-06-20T19:27:46.055Z,21.37
2019-06-20T19:30:10.492Z,21.37
2019-06-20T19:32:38.485Z,21.25
2019-06-20T19:35:09.859Z,21.07
2019-06-20T19:37:36.025Z,20.96
2019-06-20T19:40:05.560Z,21.23
2019-06-20T19:42:33.351Z,20.98
2019-06-20T19:45:01.632Z,21.05
2019-06-20T19:47:29.506Z,21.02
2019-06-20T19:49:57.434Z,21.14
2019-06-20T19:52:25.330Z,21.29
2019-06-20T19:54:53.107Z,21.47
2019-06-20T19:57:21.201Z,21.51
2019-06-20T19:59:49.013Z,21.44
2019-06-20T20:02:16.785Z,21.44
2019-06-20T20:04:44.537Z,21.59
2019-06-20T20:07:12.344Z,21.56
2019-06-20T20:09:40.160Z,21.56
2019-06-20T20:12:09.103Z,21.57
2019-06-20T20:14:36.960Z,21.68
2019-06-20T20:17:04.731Z,21.65
2019-06-20T20:19:32.491Z,21.68
2019-06-20T20:22:00.945Z,21.64
2019-06-20T20:24:28.678Z,21.63
2019-06-20T20:26:56.507Z,21.42
2019-06-20T20:29:24.282Z,21.43
2019-06-20T20:31:52.132Z,21.42
2019-06-20T20:34:19.898Z,21.45
2019-06-20T20:36:47.697Z,21.59
2019-06-20T20:39:17.042Z,21.52
2019-06-20T20:41:45.173Z,21.49
2019-06-20T20:44:12.954Z,21.67
2019-06-20T20:46:40.753Z,21.55
2019-06-20T20:49:08.593Z,21.61
2019-06-20T20:51:36.387Z,21.58
2019-06-20T20:54:04.161Z,21.53
2019-06-20T20:56:31.947Z,21.52
2019-06-20T20:58:59.784Z,21.48
2019-06-20T21:01:30.280Z,21.57
2019-06-20T21:03:59.213Z,21.52
2019-06-20T21:06:27.670Z,21.51
2019-06-20T21:08:55.531Z,21.56
2019-06-20T21:11:23.293Z,21.57
2019-06-20T21:13:51.081Z,21.40
2019-06-20T21:16:18.860Z,21.52
2019-06-20T21:18:46.660Z,21.03
2019-06-20T21:21:14.445Z,20.98
2019-06-20T21:23:42.157Z,21.05
2019-06-20T21:26:09.957Z,21.19
2019-06-20T21:28:37.773Z,21.28
2019-06-20T21:31:05.553Z,21.29
2019-06-20T21:33:35.117Z,21.38
2019-06-20T21:36:08.373Z,21.25
2019-06-20T21:38:32.634Z,21.15
2019-06-20T21:41:00.429Z,21.13
2019-06-20T21:43:28.483Z,21.10
2019-06-20T21:45:56.338Z,21.18
2019-06-20T21:48:24.095Z,21.36
2019-06-20T21:50:51.909Z,21.36
2019-06-20T21:53:19.682Z,21.13
2019-06-20T21:55:47.530Z,21.16
2019-06-20T21:58:15.290Z,21.24
2019-06-20T22:00:48.782Z,21.25
2019-06-20T22:03:16.557Z,21.28
2019-06-20T22:05:44.729Z,21.31
2019-06-20T22:08:12.525Z,21.12
2019-06-20T22:10:40.322Z,21.10
2019-06-20T22:13:08.184Z,21.11
2019-06-20T22:15:36.634Z,21.11
2019-06-20T22:18:04.500Z,20.98
2019-06-20T22:20:32.292Z,21.17
2019-06-20T22:23:00.053Z,21.31
2019-06-20T22:25:27.988Z,21.15
2019-06-20T22:27:55.751Z,21.10
2019-06-20T22:30:48.201Z,20.99
2019-06-20T22:33:15.982Z,21.24
2019-06-20T22:35:45.920Z,20.96
2019-06-20T22:38:14.000Z,21.00
2019-06-20T22:40:41.824Z,20.89
2019-06-20T22:43:09.600Z,21.03
2019-06-20T22:45:37.350Z,21.05
2019-06-20T22:48:05.138Z,21.06
2019-06-20T22:50:32.950Z,20.95
2019-06-20T22:53:00.745Z,20.98
2019-06-20T22:55:28.613Z,20.95
2019-06-20T22:57:56.369Z,20.95
2019-06-20T23:00:24.182Z,20.97
2019-06-20T23:02:51.975Z,20.91
2019-06-20T23:05:19.740Z,20.93
2019-06-20T23:07:47.523Z,20.96
2019-06-20T23:10:16.042Z,21.01
2019-06-20T23:12:43.843Z,21.17
2019-06-20T23:15:12.067Z,21.27
2019-06-20T23:17:39.859Z,21.30
2019-06-20T23:20:08.417Z,21.31
2019-06-20T23:22:36.218Z,21.02
2019-06-20T23:25:04.644Z,20.86
2019-06-20T23:27:32.463Z,20.80
2019-06-20T23:30:00.246Z,20.82
2019-06-20T23:32:28.027Z,20.85
2019-06-20T23:34:55.801Z,20.71
2019-06-20T23:37:23.564Z,20.66
2019-06-20T23:39:51.363Z,20.66
2019-06-20T23:42:19.155Z,20.71
2019-06-20T23:44:47.008Z,20.68
2019-06-20T23:47:14.805Z,20.69
2019-06-20T23:49:42.569Z,20.77
2019-06-20T23:52:15.228Z,20.69
2019-06-20T23:54:43.023Z,20.77
2019-06-20T23:57:10.819Z,20.80
2019-06-20T23:59:38.597Z,20.87
